Time;durP1;ratioP1;P1;durP2;ratioP2;P2;SDS_P1;SDS_P2;PMS_P1;PMS_P2;Temp;Humidity;BMP_temperature;BMP_pressure;BME280_temperature;BME280_humidity;BME280_pressure;Samples;Min_cycle;Max_cycle;Signal;HPM_P1;HPM_P2
2023/04/26 00:02:06;;;;;;;8.95;2.95;;;2.70;94.10;;;;;;5003865;28;20068;-71
2023/04/26 00:04:32;;;;;;;8.00;2.38;;;2.70;94.20;;;;;;5002747;28;20104;-71
2023/04/26 00:06:59;;;;;;;14.32;2.90;;;2.70;94.40;;;;;;5005811;28;20359;-71
2023/04/26 00:09:25;;;;;;;10.77;2.85;;;2.60;94.40;;;;;;5003801;28;20030;-71
2023/04/26 00:11:51;;;;;;;15.98;3.03;;;2.60;94.40;;;;;;5004466;28;20040;-70
2023/04/26 00:14:16;;;;;;;8.10;3.03;;;2.60;94.20;;;;;;5003596;28;20044;-71
2023/04/26 00:16:42;;;;;;;10.95;2.60;;;2.60;94.20;;;;;;5006483;28;20026;-71
2023/04/26 00:19:08;;;;;;;11.15;2.75;;;2.60;94.20;;;;;;5012321;28;20033;-71
2023/04/26 00:21:34;;;;;;;11.00;2.65;;;2.60;94.20;;;;;;5003845;28;20022;-71
2023/04/26 00:24:00;;;;;;;6.72;2.72;;;2.60;94.10;;;;;;5007783;28;20021;-72
2023/04/26 00:26:25;;;;;;;14.13;3.03;;;2.60;94.30;;;;;;5002910;28;20030;-71
2023/04/26 00:28:51;;;;;;;16.20;2.72;;;2.50;94.50;;;;;;5000448;28;20095;-71
2023/04/26 00:31:17;;;;;;;6.95;2.67;;;2.60;94.50;;;;;;5005251;28;20390;-72
2023/04/26 00:33:43;;;;;;;10.02;2.63;;;2.60;94.50;;;;;;4996972;28;20386;-71
2023/04/26 00:36:09;;;;;;;8.80;2.78;;;2.50;94.60;;;;;;5005414;28;20513;-71
2023/04/26 00:38:35;;;;;;;7.05;2.38;;;2.50;94.70;;;;;;4997214;28;20466;-71
2023/04/26 00:41:00;;;;;;;11.90;2.38;;;2.50;94.70;;;;;;5005454;28;20085;-72
2023/04/26 00:43:26;;;;;;;9.55;3.10;;;2.50;94.60;;;;;;5002244;28;20034;-71
2023/04/26 00:45:52;;;;;;;10.77;2.83;;;2.50;94.80;;;;;;5002177;28;20030;-71
2023/04/26 00:48:18;;;;;;;10.73;2.80;;;2.40;94.80;;;;;;4998133;28;20470;-71
2023/04/26 00:50:43;;;;;;;10.57;2.88;;;2.50;94.80;;;;;;5001323;28;20346;-71
2023/04/26 00:53:13;;;;;;;16.13;3.22;;;2.50;94.60;;;;;;5002502;28;20286;-71
2023/04/26 00:55:40;;;;;;;12.18;3.20;;;2.50;94.80;;;;;;5001062;28;20034;-71
2023/04/26 00:58:05;;;;;;;11.32;3.50;;;2.50;94.50;;;;;;5005034;28;20148;-71
2023/04/26 01:00:31;;;;;;;11.43;3.40;;;2.60;94.40;;;;;;4994280;28;20118;-71
2023/04/26 01:02:57;;;;;;;11.85;3.08;;;2.60;94.50;;;;;;4996938;28;20074;-72
2023/04/26 01:05:22;;;;;;;14.65;3.67;;;2.60;94.60;;;;;;5006923;28;20379;-71
2023/04/26 01:07:48;;;;;;;11.73;3.53;;;2.60;94.50;;;;;;5004486;28;20450;-71
2023/04/26 01:10:14;;;;;;;10.85;3.28;;;2.60;94.50;;;;;;5005071;28;20034;-71
2023/04/26 01:12:40;;;;;;;12.07;3.65;;;2.60;94.50;;;;;;4998162;28;20022;-72
2023/04/26 01:15:06;;;;;;;13.25;4.22;;;2.60;94.50;;;;;;5003448;28;20052;-71
2023/04/26 01:17:32;;;;;;;10.43;3.90;;;2.60;94.50;;;;;;5002993;28;20498;-71
2023/04/26 01:19:57;;;;;;;12.52;3.70;;;2.60;94.50;;;;;;5002633;28;20045;-71
2023/04/26 01:22:22;;;;;;;12.18;3.80;;;2.60;94.60;;;;;;4996999;28;20038;-72
2023/04/26 01:24:50;;;;;;;11.52;3.33;;;2.50;94.80;;;;;;5004574;28;20065;-71
2023/04/26 01:27:16;;;;;;;16.67;3.70;;;2.50;94.80;;;;;;5004240;28;20394;-71
2023/04/26 01:29:42;;;;;;;12.75;3.67;;;2.60;94.70;;;;;;4999618;28;20045;-71
2023/04/26 01:32:07;;;;;;;7.53;3.40;;;2.50;94.80;;;;;;4995530;28;20045;-71
2023/04/26 01:34:33;;;;;;;7.47;3.45;;;2.60;94.70;;;;;;5000644;28;20025;-71
2023/04/26 01:36:59;;;;;;;10.45;3.63;;;2.60;94.80;;;;;;5002306;28;20034;-72
2023/04/26 01:39:26;;;;;;;12.43;3.83;;;2.60;94.80;;;;;;5005891;28;20053;-71
2023/04/26 01:41:52;;;;;;;11.68;3.47;;;2.60;94.80;;;;;;5001984;28;20076;-71
2023/04/26 01:44:17;;;;;;;13.80;3.60;;;2.60;94.80;;;;;;5002115;28;20330;-70
2023/04/26 01:46:43;;;;;;;10.45;3.30;;;2.60;94.50;;;;;;4993075;28;20045;-71
2023/04/26 01:49:09;;;;;;;13.00;2.97;;;2.60;94.60;;;;;;4996076;28;20183;-71
2023/04/26 01:51:35;;;;;;;9.48;2.95;;;2.60;94.70;;;;;;4993796;28;20178;-71
2023/04/26 01:54:00;;;;;;;8.68;2.90;;;2.60;94.60;;;;;;4997940;28;20026;-71
2023/04/26 01:56:26;;;;;;;7.90;2.65;;;2.60;94.70;;;;;;5001066;28;20029;-72
2023/04/26 01:58:51;;;;;;;11.32;3.05;;;2.60;94.70;;;;;;5002330;28;20041;-71
2023/04/26 02:01:17;;;;;;;13.52;3.20;;;2.50;94.60;;;;;;4997095;28;20062;-72
2023/04/26 02:03:42;;;;;;;13.40;3.13;;;2.40;94.60;;;;;;4992233;28;20027;-71
2023/04/26 02:06:08;;;;;;;8.48;2.45;;;2.40;94.70;;;;;;5013759;28;20423;-71
2023/04/26 02:08:34;;;;;;;7.85;2.50;;;2.50;94.90;;;;;;5000084;28;20329;-71
2023/04/26 02:11:00;;;;;;;10.68;2.88;;;2.50;94.70;;;;;;4983110;28;20034;-71
2023/04/26 02:13:25;;;;;;;9.07;2.92;;;2.40;94.60;;;;;;5000756;28;20331;-70
2023/04/26 02:15:51;;;;;;;9.82;3.03;;;2.50;94.60;;;;;;4999573;28;20046;-71
2023/04/26 02:18:20;;;;;;;14.73;3.90;;;2.50;94.40;;;;;;4995947;28;20022;-70
2023/04/26 02:20:46;;;;;;;13.23;2.92;;;2.30;94.40;;;;;;4999863;28;20392;-71
2023/04/26 02:23:11;;;;;;;12.98;3.28;;;2.40;94.70;;;;;;5003942;28;20142;-70
2023/04/26 02:25:37;;;;;;;11.25;3.53;;;2.40;94.80;;;;;;4997335;28;20113;-71
2023/04/26 02:28:06;;;;;;;8.82;2.97;;;2.30;94.80;;;;;;5002796;28;20030;-71
2023/04/26 02:30:31;;;;;;;12.15;3.30;;;2.20;94.80;;;;;;4998077;28;20022;-70
2023/04/26 02:32:57;;;;;;;8.02;3.17;;;2.20;94.90;;;;;;4998352;28;20045;-72
2023/04/26 02:35:23;;;;;;;10.95;3.70;;;2.10;95.00;;;;;;5002767;28;20087;-71
2023/04/26 02:37:51;;;;;;;10.75;3.20;;;2.10;95.20;;;;;;5000767;28;20056;-70
2023/04/26 02:40:17;;;;;;;8.88;3.35;;;2.10;95.00;;;;;;4999675;28;20102;-71
2023/04/26 02:42:43;;;;;;;14.48;3.47;;;2.10;95.20;;;;;;4999547;28;20014;-70
2023/04/26 02:45:09;;;;;;;14.73;3.40;;;2.10;95.30;;;;;;5004330;28;20061;-70
2023/04/26 02:47:35;;;;;;;9.73;3.53;;;2.00;95.30;;;;;;5007431;28;20029;-69
2023/04/26 02:50:02;;;;;;;16.02;3.92;;;1.90;95.40;;;;;;5000013;28;20026;-71
2023/04/26 02:52:28;;;;;;;13.32;4.38;;;1.90;95.60;;;;;;5000090;28;20113;-69
2023/04/26 02:54:53;;;;;;;11.88;4.07;;;1.90;95.80;;;;;;5002662;28;20108;-70
2023/04/26 02:57:19;;;;;;;13.43;4.13;;;2.00;95.90;;;;;;5004396;28;20423;-70
2023/04/26 02:59:44;;;;;;;14.00;3.92;;;2.10;95.80;;;;;;5006698;28;20113;-69
2023/04/26 03:02:10;;;;;;;13.75;4.05;;;2.10;95.80;;;;;;5005093;28;20046;-71
2023/04/26 03:04:35;;;;;;;10.00;3.90;;;2.10;95.70;;;;;;4999640;28;20037;-70
2023/04/26 03:07:02;;;;;;;10.60;4.18;;;2.10;95.80;;;;;;4999913;28;20042;-70
2023/04/26 03:09:28;;;;;;;13.95;4.28;;;2.10;95.70;;;;;;5006092;28;20370;-70
2023/04/26 03:11:54;;;;;;;12.70;3.92;;;2.00;95.80;;;;;;4996657;28;20026;-70
2023/04/26 03:14:19;;;;;;;12.43;4.20;;;2.00;95.80;;;;;;5004708;28;20041;-69
2023/04/26 03:16:45;;;;;;;17.33;4.43;;;2.00;95.80;;;;;;5002571;28;20172;-69
2023/04/26 03:19:10;;;;;;;20.10;4.53;;;2.00;95.90;;;;;;4998825;28;20362;-69
2023/04/26 03:21:36;;;;;;;13.13;4.20;;;2.00;95.80;;;;;;5002348;28;20129;-70
2023/04/26 03:24:01;;;;;;;10.38;4.07;;;1.90;95.90;;;;;;5006440;28;20038;-70
2023/04/26 03:26:27;;;;;;;15.07;4.30;;;1.90;95.90;;;;;;5003857;28;20121;-69
2023/04/26 03:28:52;;;;;;;14.32;4.43;;;1.80;96.00;;;;;;4997434;28;20449;-71
2023/04/26 03:31:20;;;;;;;8.43;3.45;;;1.90;96.20;;;;;;5005694;28;20088;-69
2023/04/26 03:33:45;;;;;;;11.77;3.97;;;2.00;96.20;;;;;;5000056;28;20156;-69
2023/04/26 03:36:11;;;;;;;10.90;3.80;;;2.10;96.10;;;;;;5005536;28;20185;-69
2023/04/26 03:38:37;;;;;;;11.15;4.05;;;2.10;95.90;;;;;;4999889;28;20026;-70
2023/04/26 03:41:02;;;;;;;15.32;4.40;;;2.20;95.70;;;;;;5002855;28;20390;-71
2023/04/26 03:43:28;;;;;;;14.15;3.72;;;2.30;95.60;;;;;;5000522;28;20179;-69
2023/04/26 03:45:53;;;;;;;11.98;3.95;;;2.30;95.60;;;;;;5002724;28;20043;-71
2023/04/26 03:48:19;;;;;;;10.60;4.30;;;2.40;95.50;;;;;;4995780;28;20026;-70
2023/04/26 03:50:44;;;;;;;10.27;4.03;;;2.40;95.40;;;;;;5001414;28;20157;-70
2023/04/26 03:53:10;;;;;;;10.48;4.45;;;2.40;95.30;;;;;;5003120;28;20021;-70
2023/04/26 03:55:36;;;;;;;8.55;4.20;;;2.40;95.20;;;;;;5007415;28;20041;-70
2023/04/26 03:58:03;;;;;;;8.18;3.63;;;2.30;95.40;;;;;;4996531;28;20057;-69
2023/04/26 04:00:28;;;;;;;8.57;3.80;;;2.20;95.50;;;;;;4997899;28;20058;-69
2023/04/26 04:02:54;;;;;;;16.63;4.90;;;2.20;95.70;;;;;;4997376;28;20042;-71
2023/04/26 04:05:19;;;;;;;11.80;3.72;;;2.20;95.70;;;;;;5005966;28;20026;-70
2023/04/26 04:07:45;;;;;;;11.15;4.03;;;2.30;95.70;;;;;;5004869;28;20108;-70
2023/04/26 04:10:11;;;;;;;10.38;4.22;;;2.30;95.70;;;;;;5002771;28;20121;-70
2023/04/26 04:12:36;;;;;;;10.57;4.07;;;2.40;95.60;;;;;;5005535;28;20079;-70
2023/04/26 04:15:02;;;;;;;14.25;4.18;;;2.40;95.60;;;;;;5001578;28;20026;-70
2023/04/26 04:17:28;;;;;;;11.63;4.43;;;2.40;95.60;;;;;;4996347;28;20108;-69
2023/04/26 04:19:53;;;;;;;11.02;3.75;;;2.30;95.60;;;;;;5000294;28;20125;-69
2023/04/26 04:22:18;;;;;;;9.43;3.53;;;2.30;95.60;;;;;;4996181;28;20086;-70
2023/04/26 04:24:44;;;;;;;9.18;3.72;;;2.20;95.60;;;;;;4991583;28;20088;-69
2023/04/26 04:27:10;;;;;;;10.52;3.65;;;2.20;95.70;;;;;;5004508;28;20045;-70
2023/04/26 04:29:35;;;;;;;14.85;4.10;;;2.20;95.70;;;;;;5001214;28;20024;-74
2023/04/26 04:32:01;;;;;;;11.40;4.28;;;2.20;95.80;;;;;;5002052;28;20069;-73
2023/04/26 04:34:26;;;;;;;14.55;3.92;;;2.20;95.80;;;;;;5004042;28;20026;-73
2023/04/26 04:36:52;;;;;;;10.63;3.70;;;2.30;95.80;;;;;;5003122;28;20045;-73
2023/04/26 04:39:18;;;;;;;13.52;4.20;;;2.30;95.90;;;;;;4998011;28;20022;-72
2023/04/26 04:41:46;;;;;;;8.52;4.22;;;2.40;95.90;;;;;;5001319;28;20067;-72
2023/04/26 04:44:16;;;;;;;8.23;4.03;;;2.50;95.90;;;;;;5004634;28;20026;-73
2023/04/26 04:46:42;;;;;;;13.25;4.72;;;2.60;95.90;;;;;;5005745;28;20025;-73
2023/04/26 04:49:10;;;;;;;11.68;4.00;;;2.60;95.80;;;;;;5003342;28;20032;-73
2023/04/26 04:51:35;;;;;;;10.60;4.40;;;2.60;95.60;;;;;;5001091;28;20499;-72
2023/04/26 04:54:15;;;;;;;11.27;4.20;;;2.70;95.60;;;;;;5006789;28;20046;-73
2023/04/26 04:56:41;;;;;;;13.25;4.22;;;2.70;95.60;;;;;;5003291;28;20037;-73
2023/04/26 04:59:07;;;;;;;14.50;4.40;;;2.70;95.40;;;;;;5011840;28;20081;-73
2023/04/26 05:01:33;;;;;;;7.57;3.80;;;2.80;95.50;;;;;;5005179;28;20050;-73
2023/04/26 05:03:59;;;;;;;14.75;4.10;;;2.90;95.40;;;;;;4997097;28;20098;-73
2023/04/26 05:06:26;;;;;;;9.32;3.30;;;3.00;95.20;;;;;;5001714;28;20129;-75
2023/04/26 05:08:53;;;;;;;10.70;3.70;;;3.00;95.00;;;;;;4996302;28;20031;-76
2023/04/26 05:11:18;;;;;;;11.60;3.65;;;2.90;94.80;;;;;;5001985;28;20457;-75
2023/04/26 05:13:45;;;;;;;9.38;3.80;;;2.90;94.80;;;;;;4998657;28;20026;-75
2023/04/26 05:16:11;;;;;;;8.25;3.60;;;2.80;94.90;;;;;;4997949;28;20088;-77
2023/04/26 05:18:37;;;;;;;9.68;3.45;;;2.80;95.10;;;;;;4996057;28;20046;-76
2023/04/26 05:21:02;;;;;;;11.25;3.92;;;2.80;95.10;;;;;;4987250;28;20026;-76
2023/04/26 05:23:28;;;;;;;14.32;4.20;;;2.80;95.20;;;;;;4986863;28;20022;-76
2023/04/26 05:25:53;;;;;;;11.30;3.85;;;2.90;95.20;;;;;;5001891;28;20105;-76
2023/04/26 05:28:19;;;;;;;10.02;4.13;;;3.00;95.00;;;;;;4995324;28;20147;-77
2023/04/26 05:30:45;;;;;;;15.63;3.70;;;3.20;95.00;;;;;;4995125;28;20038;-76
2023/04/26 05:33:10;;;;;;;14.50;3.60;;;3.30;94.90;;;;;;4993594;28;20251;-77
2023/04/26 05:35:36;;;;;;;11.32;3.90;;;3.30;94.70;;;;;;4997272;28;20037;-76
2023/04/26 05:38:02;;;;;;;13.25;3.83;;;3.30;94.40;;;;;;4992409;28;20053;-76
2023/04/26 05:40:28;;;;;;;8.15;3.45;;;3.50;94.40;;;;;;4998599;28;20033;-74
2023/04/26 05:42:53;;;;;;;12.07;3.78;;;3.80;94.00;;;;;;5000460;28;20092;-73
2023/04/26 05:45:19;;;;;;;12.35;3.80;;;3.80;93.50;;;;;;4991793;28;20037;-74
2023/04/26 05:47:46;;;;;;;14.57;3.95;;;3.80;92.90;;;;;;4993010;28;20121;-76
2023/04/26 05:50:11;;;;;;;11.70;3.63;;;3.80;93.00;;;;;;4994377;28;20061;-73
2023/04/26 05:52:37;;;;;;;13.38;4.10;;;3.90;93.10;;;;;;5007157;28;20486;-73
2023/04/26 05:55:03;;;;;;;11.70;3.65;;;3.90;92.40;;;;;;4997535;28;20112;-73
2023/04/26 05:57:29;;;;;;;12.80;3.33;;;4.10;92.50;;;;;;5002421;28;20443;-74
2023/04/26 05:59:54;;;;;;;10.65;3.70;;;4.10;91.70;;;;;;4997318;28;20045;-74
2023/04/26 06:02:20;;;;;;;11.98;3.83;;;4.10;92.10;;;;;;4995478;28;20118;-74
2023/04/26 06:04:46;;;;;;;9.15;3.88;;;4.20;91.60;;;;;;4996663;28;20085;-73
2023/04/26 06:07:11;;;;;;;11.35;4.15;;;4.30;91.40;;;;;;4997678;28;20479;-73
2023/04/26 06:09:37;;;;;;;14.25;4.25;;;4.30;91.40;;;;;;4996468;28;20018;-74
2023/04/26 06:12:03;;;;;;;12.95;4.03;;;4.40;91.40;;;;;;5000136;28;20380;-73
2023/04/26 06:14:28;;;;;;;12.05;3.30;;;4.50;91.10;;;;;;5002339;28;20049;-72
2023/04/26 06:16:54;;;;;;;9.93;3.33;;;4.60;90.80;;;;;;5005212;28;20473;-74
2023/04/26 06:19:20;;;;;;;11.57;4.35;;;4.60;90.30;;;;;;4996518;28;20105;-72
2023/04/26 06:21:45;;;;;;;12.45;3.80;;;4.70;90.40;;;;;;5007430;28;20109;-74
2023/04/26 06:24:11;;;;;;;11.77;3.97;;;4.80;89.10;;;;;;5007848;28;20097;-73
2023/04/26 06:26:36;;;;;;;13.45;4.20;;;5.10;88.50;;;;;;5011026;28;20025;-73
2023/04/26 06:29:02;;;;;;;12.70;3.33;;;5.10;87.60;;;;;;4995660;28;20300;-73
2023/04/26 06:31:27;;;;;;;8.27;3.17;;;5.20;87.70;;;;;;5006796;28;20442;-73
2023/04/26 06:33:53;;;;;;;11.38;3.80;;;5.30;87.30;;;;;;5014974;28;20030;-73
2023/04/26 06:36:18;;;;;;;9.30;3.20;;;5.30;86.40;;;;;;4998457;28;20040;-74
2023/04/26 06:38:44;;;;;;;10.10;3.30;;;5.30;87.10;;;;;;5011413;28;20422;-73
2023/04/26 06:41:09;;;;;;;6.30;3.13;;;5.50;86.70;;;;;;5006170;28;20113;-74
2023/04/26 06:43:35;;;;;;;11.80;3.50;;;5.60;85.60;;;;;;5012999;28;20041;-73
2023/04/26 06:46:00;;;;;;;10.80;3.42;;;5.60;85.80;;;;;;5007936;28;20501;-75
2023/04/26 06:48:26;;;;;;;13.73;3.65;;;5.50;85.80;;;;;;5011250;28;20025;-74
2023/04/26 06:50:52;;;;;;;10.00;3.10;;;5.50;86.30;;;;;;5011739;28;20346;-73
2023/04/26 06:53:17;;;;;;;5.18;2.67;;;5.30;86.30;;;;;;5003094;28;20112;-72
2023/04/26 06:55:42;;;;;;;12.45;3.17;;;5.30;86.50;;;;;;5004422;28;20058;-76
2023/04/26 06:58:08;;;;;;;8.00;2.95;;;5.10;86.20;;;;;;5005122;28;20049;-75
2023/04/26 07:00:34;;;;;;;9.23;3.53;;;5.40;86.60;;;;;;5007265;28;20042;-75
2023/04/26 07:02:59;;;;;;;9.15;3.22;;;5.50;85.60;;;;;;5001939;28;20034;-76
2023/04/26 07:05:25;;;;;;;9.18;2.90;;;5.60;84.20;;;;;;4996059;28;20093;-75
2023/04/26 07:07:51;;;;;;;11.85;3.25;;;5.90;84.40;;;;;;5005403;28;20425;-77
2023/04/26 07:10:16;;;;;;;7.45;3.08;;;6.10;84.30;;;;;;5003297;28;20483;-75
2023/04/26 07:12:42;;;;;;;9.10;2.67;;;6.10;83.20;;;;;;5004561;28;20061;-73
2023/04/26 07:15:08;;;;;;;10.43;2.95;;;6.20;83.30;;;;;;5009814;28;20038;-73
2023/04/26 07:17:33;;;;;;;7.55;2.90;;;6.60;84.00;;;;;;5014080;28;20086;-74
2023/04/26 07:19:59;;;;;;;8.27;2.45;;;6.90;82.70;;;;;;5013730;28;20422;-74
2023/04/26 07:22:24;;;;;;;10.80;3.10;;;7.00;82.30;;;;;;5004573;28;20106;-73
2023/04/26 07:24:50;;;;;;;8.57;2.95;;;6.80;81.60;;;;;;5013915;28;20034;-74
2023/04/26 07:27:15;;;;;;;8.60;2.60;;;6.50;82.90;;;;;;5004771;28;20041;-74
2023/04/26 07:29:41;;;;;;;11.13;3.42;;;6.30;83.80;;;;;;5011940;28;20038;-73
2023/04/26 07:32:06;;;;;;;13.65;3.20;;;6.10;83.20;;;;;;5009965;28;20057;-73
2023/04/26 07:34:32;;;;;;;10.05;2.50;;;6.10;83.60;;;;;;5011990;28;20038;-73
2023/04/26 07:36:57;;;;;;;8.05;2.88;;;6.10;83.10;;;;;;5020640;28;20033;-73
2023/04/26 07:39:23;;;;;;;7.88;2.45;;;6.20;83.40;;;;;;5006776;28;20097;-73
2023/04/26 07:41:48;;;;;;;14.15;3.42;;;6.50;82.60;;;;;;5010326;28;20540;-73
2023/04/26 07:44:14;;;;;;;12.43;2.50;;;6.90;82.30;;;;;;5008217;28;20084;-74
2023/04/26 07:46:39;;;;;;;8.25;2.92;;;7.20;82.00;;;;;;5004143;28;20026;-73
2023/04/26 07:49:05;;;;;;;7.32;2.22;;;7.10;81.80;;;;;;5003282;28;20069;-74
2023/04/26 07:51:30;;;;;;;6.90;2.40;;;7.00;80.30;;;;;;5006516;28;20036;-74
2023/04/26 07:53:56;;;;;;;5.22;1.92;;;6.60;79.30;;;;;;5018054;28;20029;-74
2023/04/26 07:56:23;;;;;;;8.27;2.60;;;6.70;79.20;;;;;;5008351;28;20499;-73
2023/04/26 07:58:48;;;;;;;7.22;2.42;;;7.00;78.60;;;;;;5010561;28;20304;-73
2023/04/26 08:01:14;;;;;;;7.00;2.20;;;7.10;78.60;;;;;;5003900;28;20076;-73
2023/04/26 08:03:41;;;;;;;6.82;2.17;;;7.40;78.40;;;;;;5002012;28;20438;-73
2023/04/26 08:06:07;;;;;;;10.07;2.58;;;7.20;77.10;;;;;;5009413;28;20088;-74
2023/04/26 08:08:34;;;;;;;12.80;2.20;;;7.40;77.40;;;;;;5017995;28;20030;-73
2023/04/26 08:11:00;;;;;;;10.18;2.53;;;7.60;77.20;;;;;;5016081;28;20098;-73
2023/04/26 08:13:25;;;;;;;9.30;2.53;;;7.80;77.70;;;;;;5019809;28;20105;-73
2023/04/26 08:15:51;;;;;;;8.50;2.65;;;7.80;75.40;;;;;;5014646;28;20030;-72
2023/04/26 08:18:16;;;;;;;7.68;2.38;;;7.70;75.10;;;;;;5000561;28;20034;-73
2023/04/26 08:20:42;;;;;;;11.27;2.30;;;7.70;74.90;;;;;;5002115;28;20037;-72
2023/04/26 08:23:08;;;;;;;8.45;2.40;;;7.50;75.20;;;;;;5000070;28;20323;-73
2023/04/26 08:25:33;;;;;;;11.55;2.75;;;7.80;75.90;;;;;;5002745;28;20055;-73
2023/04/26 08:27:59;;;;;;;5.70;2.17;;;8.10;75.10;;;;;;5010402;28;20129;-72
2023/04/26 08:30:25;;;;;;;8.52;2.45;;;7.90;74.20;;;;;;5011531;28;20033;-72
2023/04/26 08:32:50;;;;;;;10.00;2.60;;;8.20;74.80;;;;;;5007261;28;20246;-74
2023/04/26 08:35:16;;;;;;;9.05;2.33;;;8.40;73.90;;;;;;5001194;28;20144;-72
2023/04/26 08:37:41;;;;;;;7.72;2.45;;;8.60;73.30;;;;;;5008125;28;20029;-71
2023/04/26 08:40:10;;;;;;;8.88;1.88;;;8.40;72.50;;;;;;5007160;28;20041;-72
2023/04/26 08:42:41;;;;;;;8.98;2.05;;;8.50;71.80;;;;;;4997165;28;20486;-73
2023/04/26 08:45:07;;;;;;;8.15;2.35;;;8.30;71.70;;;;;;5002697;28;20338;-72
2023/04/26 08:47:49;;;;;;;8.00;2.20;;;8.20;71.60;;;;;;5010114;28;20037;-73
2023/04/26 08:50:21;;;;;;;7.00;2.30;;;8.20;72.70;;;;;;5010671;28;20042;-72
2023/04/26 08:52:49;;;;;;;8.00;1.73;;;8.30;72.50;;;;;;5017396;28;20081;-75
2023/04/26 08:55:16;;;;;;;9.43;2.38;;;7.90;72.10;;;;;;5013275;28;20030;-72
2023/04/26 08:57:44;;;;;;;5.18;2.10;;;7.80;73.80;;;;;;5008461;28;20042;-73
2023/04/26 09:00:12;;;;;;;4.15;1.40;;;7.60;74.80;;;;;;5008601;28;20136;-72
2023/04/26 09:02:40;;;;;;;2.95;1.00;;;6.10;79.40;;;;;;5001539;28;20096;-72
2023/04/26 09:05:06;;;;;;;2.85;1.35;;;5.80;82.20;;;;;;4999015;28;20041;-72
2023/04/26 09:07:38;;;;;;;2.15;1.05;;;5.60;84.90;;;;;;5001002;28;20103;-73
2023/04/26 09:10:05;;;;;;;4.00;1.50;;;5.60;85.10;;;;;;5005463;28;20014;-72
2023/04/26 09:12:31;;;;;;;4.40;1.33;;;5.50;85.60;;;;;;5003059;28;20045;-73
2023/04/26 09:14:56;;;;;;;4.35;1.33;;;5.50;84.60;;;;;;5001362;28;20410;-72
2023/04/26 09:17:33;;;;;;;5.05;1.60;;;5.90;85.50;;;;;;4998416;28;20359;-73
2023/04/26 09:20:20;;;;;;;6.32;1.73;;;6.00;84.00;;;;;;4998450;28;20055;-73
2023/04/26 09:22:47;;;;;;;6.47;1.75;;;6.60;82.70;;;;;;4993871;28;20415;-72
2023/04/26 09:25:14;;;;;;;5.03;1.75;;;7.30;80.90;;;;;;5000628;28;20021;-73
2023/04/26 09:27:44;;;;;;;5.68;1.73;;;7.40;78.30;;;;;;5001765;28;20022;-73
2023/04/26 09:30:17;;;;;;;8.43;1.83;;;8.00;77.50;;;;;;4999150;28;20026;-73
2023/04/26 09:32:43;;;;;;;7.63;1.88;;;8.50;78.00;;;;;;4999479;28;20449;-72
2023/04/26 09:35:25;;;;;;;5.15;1.70;;;8.50;75.20;;;;;;4994502;28;20029;-72
2023/04/26 09:37:59;;;;;;;7.47;1.88;;;8.60;74.20;;;;;;4998921;28;20075;-73
2023/04/26 09:40:26;;;;;;;8.43;2.10;;;9.20;73.50;;;;;;5003422;28;20142;-73
2023/04/26 09:42:56;;;;;;;5.13;1.98;;;8.90;73.80;;;;;;4993266;28;20423;-72
2023/04/26 09:45:23;;;;;;;4.53;2.07;;;9.10;73.80;;;;;;4997703;28;20033;-72
2023/04/26 09:47:48;;;;;;;5.50;1.33;;;8.60;74.40;;;;;;4998131;28;20307;-75
2023/04/26 09:50:25;;;;;;;1.80;0.80;;;8.10;74.10;;;;;;4999370;28;20358;-73
2023/04/26 09:52:50;;;;;;;2.17;1.00;;;7.30;78.50;;;;;;5002947;28;20489;-73
2023/04/26 09:55:26;;;;;;;2.63;1.10;;;6.90;80.40;;;;;;4997465;28;20073;-72
2023/04/26 09:57:52;;;;;;;4.30;0.95;;;6.70;81.40;;;;;;5000733;28;20158;-72
2023/04/26 10:00:18;;;;;;;6.00;1.42;;;6.30;83.30;;;;;;5005542;28;20129;-72
2023/04/26 10:02:45;;;;;;;5.00;1.52;;;6.40;85.80;;;;;;4999849;28;20490;-72
2023/04/26 10:05:11;;;;;;;4.90;2.15;;;6.80;86.20;;;;;;5000547;28;20030;-73
2023/04/26 10:07:37;;;;;;;3.90;1.48;;;6.70;85.30;;;;;;5000559;28;20480;-72
2023/04/26 10:10:03;;;;;;;5.38;1.63;;;6.90;84.40;;;;;;5001140;28;20077;-72
2023/04/26 10:12:29;;;;;;;5.07;1.88;;;7.00;83.30;;;;;;5002694;28;20029;-72
2023/04/26 10:14:56;;;;;;;3.47;1.63;;;7.10;82.70;;;;;;5004504;28;20040;-72
2023/04/26 10:17:21;;;;;;;7.45;1.95;;;7.50;81.10;;;;;;4997339;28;20092;-73
2023/04/26 10:19:51;;;;;;;4.00;2.03;;;8.10;79.90;;;;;;5005469;28;20117;-75
2023/04/26 10:22:25;;;;;;;5.93;1.70;;;8.50;80.20;;;;;;5006900;28;20029;-72
2023/04/26 10:24:54;;;;;;;4.50;1.60;;;8.70;77.60;;;;;;5007334;28;20045;-72
2023/04/26 10:27:42;;;;;;;6.22;1.65;;;8.80;76.00;;;;;;5010741;28;20300;-72
2023/04/26 10:30:21;;;;;;;4.88;1.90;;;9.10;74.30;;;;;;5003296;28;20044;-72
2023/04/26 10:33:07;;;;;;;7.63;1.75;;;9.40;73.80;;;;;;5001507;28;20030;-75
2023/04/26 10:35:36;;;;;;;4.63;1.70;;;10.30;72.30;;;;;;5000792;28;20104;-72
2023/04/26 10:38:02;;;;;;;5.88;1.88;;;9.70;70.20;;;;;;5001715;28;20140;-72
2023/04/26 10:40:32;;;;;;;4.72;1.00;;;10.10;72.20;;;;;;5006007;28;20025;-72
2023/04/26 10:43:10;;;;;;;6.32;1.70;;;10.50;68.30;;;;;;5000325;28;20034;-73
2023/04/26 10:45:37;;;;;;;6.38;1.83;;;10.10;69.80;;;;;;5001900;28;20028;-72
2023/04/26 10:48:16;;;;;;;8.13;1.40;;;9.50;70.60;;;;;;4994162;28;20050;-72
2023/04/26 10:51:09;;;;;;;6.50;1.30;;;9.10;71.60;;;;;;4988679;28;20025;-72
2023/04/26 10:53:43;;;;;;;6.47;1.65;;;9.20;72.40;;;;;;4996584;28;20370;-72
2023/04/26 10:56:09;;;;;;;5.15;1.25;;;8.90;72.60;;;;;;5000850;28;20030;-75
2023/04/26 10:58:39;;;;;;;4.70;1.25;;;8.90;69.10;;;;;;5004188;28;20025;-74
2023/04/26 11:01:16;;;;;;;4.80;1.35;;;9.00;68.00;;;;;;4997975;28;20081;-76
2023/04/26 11:04:02;;;;;;;4.03;1.33;;;9.60;67.50;;;;;;4998596;28;20108;-75
2023/04/26 11:06:50;;;;;;;7.88;2.03;;;10.50;67.70;;;;;;5004283;28;20030;-76
2023/04/26 11:09:47;;;;;;;5.03;1.52;;;11.00;63.30;;;;;;5001795;28;20030;-76
2023/04/26 11:12:14;;;;;;;5.78;1.55;;;11.10;63.10;;;;;;5002530;28;20072;-75
2023/04/26 11:14:44;;;;;;;6.80;1.55;;;10.20;62.10;;;;;;5002227;28;20102;-75
2023/04/26 11:17:11;;;;;;;11.38;2.00;;;9.90;65.10;;;;;;4987813;28;20100;-74
2023/04/26 11:19:36;;;;;;;4.60;1.40;;;10.10;65.70;;;;;;4987641;28;20113;-74
2023/04/26 11:22:06;;;;;;;5.43;1.50;;;9.70;61.80;;;;;;4990087;28;20117;-74
2023/04/26 11:24:32;;;;;;;5.85;1.50;;;9.70;64.10;;;;;;4991567;28;20030;-74
2023/04/26 11:26:58;;;;;;;5.00;1.35;;;9.30;65.40;;;;;;4994477;28;20133;-75
2023/04/26 11:29:24;;;;;;;6.28;1.58;;;9.10;68.10;;;;;;4994487;28;20064;-74
2023/04/26 11:31:57;;;;;;;5.38;1.38;;;8.70;70.10;;;;;;5000513;28;20030;-76
2023/04/26 11:34:35;;;;;;;3.42;0.93;;;8.60;71.10;;;;;;5006770;28;20281;-75
2023/04/26 11:37:03;;;;;;;6.30;1.13;;;8.40;67.10;;;;;;5005482;28;20109;-76
2023/04/26 11:39:33;;;;;;;4.43;1.30;;;8.50;67.90;;;;;;5002512;28;20026;-75
2023/04/26 11:42:08;;;;;;;2.42;0.95;;;8.40;65.40;;;;;;5001487;28;20029;-76
2023/04/26 11:44:34;;;;;;;3.78;1.20;;;9.30;65.10;;;;;;5008111;28;20056;-75
2023/04/26 11:47:02;;;;;;;4.20;1.20;;;10.50;65.00;;;;;;5000544;28;20351;-76
2023/04/26 11:49:29;;;;;;;6.72;1.60;;;10.40;62.00;;;;;;5006339;28;20105;-76
2023/04/26 11:51:55;;;;;;;6.10;1.50;;;10.20;62.80;;;;;;5008676;28;20117;-76
2023/04/26 11:54:35;;;;;;;3.75;1.23;;;10.10;64.40;;;;;;5007655;28;20129;-75
2023/04/26 11:57:15;;;;;;;3.97;1.35;;;10.00;65.60;;;;;;5004737;28;20325;-75
2023/04/26 11:59:41;;;;;;;2.43;1.00;;;10.00;67.60;;;;;;5004939;28;20060;-76
2023/04/26 12:02:07;;;;;;;4.47;1.20;;;9.70;67.40;;;;;;5006362;28;20784;-75
2023/04/26 12:04:33;;;;;;;3.38;1.17;;;10.00;66.80;;;;;;5006038;28;20030;-75
2023/04/26 12:06:59;;;;;;;4.55;1.20;;;10.00;65.40;;;;;;5008899;28;20092;-75
2023/04/26 12:09:28;;;;;;;8.10;1.20;;;10.00;65.10;;;;;;5002023;28;20355;-76
2023/04/26 12:12:01;;;;;;;6.38;1.30;;;9.90;64.60;;;;;;5005157;28;20018;-76
2023/04/26 12:14:35;;;;;;;5.45;1.13;;;9.90;67.00;;;;;;5001255;28;20040;-75
2023/04/26 12:17:01;;;;;;;3.60;1.10;;;9.60;65.70;;;;;;4996907;28;20040;-76
2023/04/26 12:19:31;;;;;;;2.28;0.80;;;9.70;66.50;;;;;;5004871;28;20046;-76
2023/04/26 12:21:57;;;;;;;4.45;0.95;;;9.70;68.80;;;;;;5009256;28;20022;-75
2023/04/26 12:24:28;;;;;;;6.15;1.50;;;9.40;68.50;;;;;;5007924;28;20034;-75
2023/04/26 12:26:54;;;;;;;4.90;1.20;;;9.60;69.50;;;;;;5009181;28;20018;-75
2023/04/26 12:29:19;;;;;;;3.58;1.00;;;9.90;69.40;;;;;;5014637;28;20036;-75
2023/04/26 12:31:45;;;;;;;4.43;1.02;;;9.50;69.20;;;;;;5002297;28;20038;-76
2023/04/26 12:34:11;;;;;;;2.92;0.80;;;8.90;70.40;;;;;;5001100;28;20025;-76
2023/04/26 12:36:39;;;;;;;6.25;1.10;;;8.80;72.20;;;;;;5007858;28;20033;-75
2023/04/26 12:39:05;;;;;;;6.53;1.60;;;9.30;70.20;;;;;;5006498;28;20095;-74
2023/04/26 12:41:31;;;;;;;4.78;1.35;;;9.80;69.70;;;;;;4996519;28;20168;-75
2023/04/26 12:43:56;;;;;;;2.72;1.08;;;10.40;68.60;;;;;;5000910;28;20424;-75
2023/04/26 12:46:22;;;;;;;6.00;1.05;;;10.50;66.90;;;;;;5006374;28;20105;-75
2023/04/26 12:48:48;;;;;;;6.30;1.30;;;9.80;68.20;;;;;;4995847;28;20533;-74
2023/04/26 12:51:13;;;;;;;2.88;1.10;;;9.50;70.30;;;;;;5006371;28;20065;-75